createdAt,value
2023-01-24T00:00:44.115Z,1.83
2023-01-24T00:03:13.419Z,1.79
2023-01-24T00:05:45.237Z,1.78
2023-01-24T00:08:13.646Z,1.76
2023-01-24T00:10:40.514Z,1.75
2023-01-24T00:13:07.997Z,1.74
2023-01-24T00:15:34.653Z,1.75
2023-01-24T00:18:01.427Z,1.69
2023-01-24T00:20:28.179Z,1.71
2023-01-24T00:22:54.939Z,1.75
2023-01-24T00:25:21.965Z,1.80
2023-01-24T00:27:49.084Z,1.77
2023-01-24T00:30:16.432Z,1.74
2023-01-24T00:32:43.359Z,1.74
2023-01-24T00:35:10.423Z,1.71
2023-01-24T00:37:37.290Z,1.74
2023-01-24T00:40:04.177Z,1.72
2023-01-24T00:42:30.796Z,1.71
2023-01-24T00:44:58.847Z,1.65
2023-01-24T00:47:26.574Z,1.70
2023-01-24T00:49:53.329Z,1.68
2023-01-24T00:52:20.324Z,1.67
2023-01-24T00:54:49.228Z,1.70
2023-01-24T00:57:16.100Z,1.67
2023-01-24T00:59:43.429Z,1.67
2023-01-24T01:02:11.976Z,1.65
2023-01-24T01:04:38.779Z,1.62
2023-01-24T01:07:05.535Z,1.66
2023-01-24T01:09:32.646Z,1.66
2023-01-24T01:11:59.606Z,1.66
2023-01-24T01:14:26.575Z,1.64
2023-01-24T01:16:53.224Z,1.62
2023-01-24T01:19:19.935Z,1.62
2023-01-24T01:21:46.574Z,1.60
2023-01-24T01:24:13.703Z,1.62
2023-01-24T01:26:40.866Z,1.58
2023-01-24T01:29:07.650Z,1.59
2023-01-24T01:31:34.451Z,1.59
2023-01-24T01:34:02.337Z,1.58
2023-01-24T01:36:28.939Z,1.56
2023-01-24T01:38:56.167Z,1.57
2023-01-24T01:41:23.056Z,1.55
2023-01-24T01:44:08.502Z,1.56
2023-01-24T01:46:45.330Z,1.58
2023-01-24T01:49:20.389Z,1.54
2023-01-24T01:51:50.572Z,1.54
2023-01-24T01:54:20.746Z,1.52
2023-01-24T01:56:54.984Z,1.52
2023-01-24T01:59:28.946Z,1.54
2023-01-24T02:02:00.821Z,1.55
2023-01-24T02:04:36.945Z,1.51
2023-01-24T02:07:11.281Z,1.49
2023-01-24T02:09:43.452Z,1.44
2023-01-24T02:12:22.713Z,1.53
2023-01-24T02:15:12.387Z,1.52
2023-01-24T02:17:41.042Z,1.52
2023-01-24T02:20:25.709Z,1.52
2023-01-24T02:23:04.867Z,1.50
2023-01-24T02:25:50.344Z,1.47
2023-01-24T02:28:17.957Z,1.50
2023-01-24T02:30:44.670Z,1.51
2023-01-24T02:33:17.802Z,1.50
2023-01-24T02:35:45.511Z,1.52
2023-01-24T02:38:23.713Z,1.52
2023-01-24T02:40:56.267Z,1.48
2023-01-24T02:43:26.936Z,1.49
2023-01-24T02:45:53.694Z,1.47
2023-01-24T02:48:20.556Z,1.52
2023-01-24T02:51:06.110Z,1.50
2023-01-24T02:53:32.955Z,1.49
2023-01-24T02:56:24.614Z,1.48
2023-01-24T02:58:51.416Z,1.46
2023-01-24T03:01:19.018Z,1.44
2023-01-24T03:03:51.722Z,1.43
2023-01-24T03:06:19.128Z,1.45
2023-01-24T03:08:46.511Z,1.45
2023-01-24T03:11:20.428Z,1.44
2023-01-24T03:14:06.502Z,1.44
2023-01-24T03:16:51.935Z,1.45
2023-01-24T03:19:37.425Z,1.43
2023-01-24T03:22:22.996Z,1.44
2023-01-24T03:25:08.174Z,1.41
2023-01-24T03:27:53.905Z,1.41
2023-01-24T03:30:45.209Z,1.41
2023-01-24T03:33:31.000Z,1.40
2023-01-24T03:35:59.439Z,1.40
2023-01-24T03:38:49.527Z,1.43
2023-01-24T03:41:17.365Z,1.40
2023-01-24T03:43:46.884Z,1.43
2023-01-24T03:46:14.495Z,1.40
2023-01-24T03:48:52.089Z,1.40
2023-01-24T03:51:42.428Z,1.40
2023-01-24T03:54:09.244Z,1.40
2023-01-24T03:57:03.569Z,1.33
2023-01-24T03:59:30.925Z,1.39
2023-01-24T04:01:57.749Z,1.40
2023-01-24T04:04:47.595Z,1.42
2023-01-24T04:07:25.802Z,1.40
2023-01-24T04:09:55.808Z,1.35
2023-01-24T04:12:22.524Z,1.34
2023-01-24T04:14:49.671Z,1.34
2023-01-24T04:17:16.452Z,1.34
2023-01-24T04:19:46.440Z,1.34
2023-01-24T04:22:13.644Z,1.30
2023-01-24T04:24:40.937Z,1.29
2023-01-24T04:27:07.816Z,1.31
2023-01-24T04:29:53.189Z,1.46
2023-01-24T04:32:20.704Z,1.48
2023-01-24T04:35:04.672Z,1.47
2023-01-24T04:37:50.564Z,1.45
2023-01-24T04:40:26.769Z,1.44
2023-01-24T04:42:57.311Z,1.44
2023-01-24T04:45:24.773Z,1.44
2023-01-24T04:47:51.676Z,1.46
2023-01-24T04:50:18.764Z,1.33
2023-01-24T04:52:45.898Z,1.34
2023-01-24T04:55:12.820Z,1.33
2023-01-24T04:57:39.704Z,1.32
2023-01-24T05:00:09.792Z,1.35
2023-01-24T05:02:38.554Z,1.34
2023-01-24T05:05:07.300Z,1.33
2023-01-24T05:07:34.085Z,1.32
2023-01-24T05:10:07.082Z,1.31
2023-01-24T05:12:34.830Z,1.30
2023-01-24T05:15:08.382Z,1.31
2023-01-24T05:17:35.086Z,1.29
2023-01-24T05:20:04.508Z,1.29
2023-01-24T05:22:31.212Z,1.27
2023-01-24T05:24:57.984Z,1.27
2023-01-24T05:27:24.758Z,1.24
2023-01-24T05:29:58.047Z,1.24
2023-01-24T05:32:24.812Z,1.26
2023-01-24T05:34:52.633Z,1.25
2023-01-24T05:37:19.418Z,1.24
2023-01-24T05:39:46.195Z,1.24
2023-01-24T05:42:13.121Z,1.24
2023-01-24T05:44:44.047Z,1.26
2023-01-24T05:47:10.698Z,1.24
2023-01-24T05:49:40.471Z,1.25
2023-01-24T05:52:07.459Z,1.26
2023-01-24T05:54:47.259Z,1.25
2023-01-24T05:57:38.210Z,1.20
2023-01-24T06:00:23.555Z,1.22
2023-01-24T06:03:08.972Z,1.23
2023-01-24T06:05:36.193Z,1.22
2023-01-24T06:08:03.694Z,1.22
2023-01-24T06:10:30.398Z,1.21
2023-01-24T06:13:04.393Z,1.21
2023-01-24T06:15:31.103Z,1.22
2023-01-24T06:17:58.625Z,1.23
2023-01-24T06:20:25.889Z,1.23
2023-01-24T06:23:04.264Z,1.21
2023-01-24T06:25:33.139Z,1.23
2023-01-24T06:28:01.028Z,1.22
2023-01-24T06:30:28.301Z,1.23
2023-01-24T06:33:07.514Z,1.22
2023-01-24T06:36:00.791Z,1.23
2023-01-24T06:38:28.076Z,1.22
2023-01-24T06:41:01.557Z,1.22
2023-01-24T06:43:28.687Z,1.21
2023-01-24T06:45:58.455Z,1.21
2023-01-24T06:48:25.209Z,1.22
2023-01-24T06:50:52.246Z,1.20
2023-01-24T06:53:19.017Z,1.21
2023-01-24T06:55:47.351Z,1.22
2023-01-24T06:58:14.317Z,1.22
2023-01-24T07:00:41.166Z,1.19
2023-01-24T07:03:09.814Z,1.20
2023-01-24T07:05:38.703Z,1.20
2023-01-24T07:08:07.002Z,1.19
2023-01-24T07:10:34.110Z,1.18
2023-01-24T07:13:00.954Z,1.16
2023-01-24T07:15:28.268Z,1.14
2023-01-24T07:17:56.594Z,1.15
2023-01-24T07:20:23.414Z,1.14
2023-01-24T07:22:50.482Z,1.15
2023-01-24T07:25:20.875Z,1.15
2023-01-24T07:27:49.051Z,1.14
2023-01-24T07:30:16.550Z,1.14
2023-01-24T07:32:43.669Z,1.14
2023-01-24T07:35:11.091Z,1.21
2023-01-24T07:37:38.307Z,1.25
2023-01-24T07:40:05.522Z,1.23
2023-01-24T07:42:32.404Z,1.24
2023-01-24T07:44:59.511Z,1.25
2023-01-24T07:47:27.874Z,1.23
2023-01-24T07:49:54.867Z,1.25
2023-01-24T07:52:21.587Z,1.19
2023-01-24T07:54:48.455Z,1.16
2023-01-24T07:57:16.868Z,1.19
2023-01-24T07:59:43.649Z,1.24
2023-01-24T08:02:12.415Z,1.21
2023-01-24T08:04:39.891Z,1.14
2023-01-24T08:07:18.569Z,1.15
2023-01-24T08:09:52.277Z,1.22
2023-01-24T08:12:22.944Z,1.24
2023-01-24T08:14:49.808Z,1.23
2023-01-24T08:17:16.616Z,1.25
2023-01-24T08:19:55.748Z,1.24
2023-01-24T08:22:23.329Z,1.25
2023-01-24T08:24:50.045Z,1.27
2023-01-24T08:27:16.827Z,1.29
2023-01-24T08:29:43.545Z,1.26
2023-01-24T08:32:10.306Z,1.29
2023-01-24T08:34:37.132Z,1.33
2023-01-24T08:37:03.859Z,1.34
2023-01-24T08:39:30.633Z,1.34
2023-01-24T08:41:57.357Z,1.34
2023-01-24T08:44:24.132Z,1.33
2023-01-24T08:46:51.116Z,1.34
2023-01-24T08:49:17.802Z,1.36
2023-01-24T08:51:44.459Z,1.33
2023-01-24T08:54:11.162Z,1.26
2023-01-24T08:56:38.067Z,1.23
2023-01-24T08:59:04.706Z,1.22
2023-01-24T09:01:33.163Z,1.26
2023-01-24T09:04:00.485Z,1.28
2023-01-24T09:06:27.363Z,1.23
2023-01-24T09:08:55.745Z,1.24
2023-01-24T09:11:23.158Z,1.29
2023-01-24T09:13:50.324Z,1.27
2023-01-24T09:16:17.441Z,1.26
2023-01-24T09:18:44.360Z,1.26
2023-01-24T09:21:11.965Z,1.27
2023-01-24T09:23:38.715Z,1.30
2023-01-24T09:26:05.791Z,1.30
2023-01-24T09:28:33.492Z,1.40
2023-01-24T09:31:00.606Z,1.37
2023-01-24T09:33:27.393Z,1.32
2023-01-24T09:35:59.016Z,1.47
2023-01-24T09:38:28.354Z,1.44
2023-01-24T09:41:09.461Z,1.41
2023-01-24T09:43:51.295Z,1.45
2023-01-24T09:46:49.721Z,1.39
2023-01-24T09:49:43.592Z,1.38
2023-01-24T09:52:16.177Z,1.41
2023-01-24T09:54:55.937Z,1.36
2023-01-24T09:57:27.692Z,1.43
2023-01-24T09:59:58.801Z,1.46
2023-01-24T10:02:28.621Z,1.45
2023-01-24T10:04:55.447Z,1.39
2023-01-24T10:07:59.785Z,1.48
2023-01-24T10:10:59.783Z,1.49
2023-01-24T10:13:44.974Z,1.43
2023-01-24T10:16:26.672Z,1.45
2023-01-24T10:19:07.682Z,1.48
2023-01-24T10:21:53.112Z,1.48
2023-01-24T10:24:24.438Z,1.46
2023-01-24T10:26:53.020Z,1.47
2023-01-24T10:29:22.650Z,1.53
2023-01-24T10:32:02.692Z,1.50
2023-01-24T10:34:38.191Z,1.48
2023-01-24T10:37:20.614Z,1.54
2023-01-24T10:39:47.825Z,1.51
2023-01-24T10:42:31.692Z,1.46
2023-01-24T10:45:11.478Z,1.48
2023-01-24T10:47:46.619Z,1.52
2023-01-24T10:50:16.312Z,1.52
2023-01-24T10:52:43.889Z,1.55
2023-01-24T10:55:37.000Z,1.60
2023-01-24T10:58:25.848Z,1.52
2023-01-24T11:01:05.066Z,1.56
2023-01-24T11:03:36.065Z,1.52
2023-01-24T11:06:03.522Z,1.52
2023-01-24T11:08:35.694Z,1.56
2023-01-24T11:11:04.204Z,1.53
2023-01-24T11:13:35.456Z,1.56
2023-01-24T11:16:18.801Z,1.49
2023-01-24T11:18:49.360Z,1.54
2023-01-24T11:21:18.613Z,1.54
2023-01-24T11:23:46.365Z,1.46
2023-01-24T11:26:29.173Z,1.57
2023-01-24T11:29:06.074Z,1.62
2023-01-24T11:32:23.815Z,1.60
2023-01-24T11:35:04.192Z,1.56
2023-01-24T11:37:40.276Z,1.61
2023-01-24T11:40:27.965Z,1.62
2023-01-24T11:43:14.879Z,1.60
2023-01-24T11:45:57.004Z,1.58
2023-01-24T11:48:28.661Z,1.57
2023-01-24T11:51:12.839Z,1.59
2023-01-24T11:54:08.966Z,1.57
2023-01-24T11:57:12.221Z,1.63
2023-01-24T12:00:17.332Z,1.70
2023-01-24T12:03:07.560Z,1.71
2023-01-24T12:05:40.865Z,1.58
2023-01-24T12:08:25.757Z,1.62
2023-01-24T12:11:26.334Z,1.68
2023-01-24T12:14:35.348Z,1.61
2023-01-24T12:17:23.799Z,1.67
2023-01-24T12:20:00.455Z,1.54
2023-01-24T12:22:30.674Z,1.56
2023-01-24T12:25:24.811Z,1.64
2023-01-24T12:27:54.668Z,1.67
2023-01-24T12:30:32.485Z,1.55
2023-01-24T12:33:20.430Z,1.60
2023-01-24T12:35:51.971Z,1.66
2023-01-24T12:38:36.126Z,1.59
2023-01-24T12:41:34.937Z,1.63
2023-01-24T12:44:19.809Z,1.65
2023-01-24T12:46:55.728Z,1.55
2023-01-24T12:49:44.462Z,1.62
2023-01-24T12:52:36.133Z,1.65
2023-01-24T12:55:05.514Z,1.66
2023-01-24T12:57:41.741Z,1.60
2023-01-24T13:00:23.140Z,1.57
2023-01-24T13:03:12.019Z,1.59
2023-01-24T13:05:43.903Z,1.64
2023-01-24T13:08:19.808Z,1.62
2023-01-24T13:11:08.518Z,1.73
2023-01-24T13:13:41.814Z,1.71
2023-01-24T13:16:21.219Z,1.58
2023-01-24T13:18:51.260Z,1.63
2023-01-24T13:21:56.452Z,1.60
2023-01-24T13:24:37.272Z,1.53
2023-01-24T13:27:18.267Z,1.52
2023-01-24T13:30:14.854Z,1.60
2023-01-24T13:32:42.211Z,1.54
2023-01-24T13:35:22.164Z,1.62
2023-01-24T13:38:02.240Z,1.60
2023-01-24T13:40:35.908Z,1.50
2023-01-24T13:43:25.546Z,1.50
2023-01-24T13:45:52.776Z,1.48
2023-01-24T13:48:41.757Z,1.50
2023-01-24T13:51:17.331Z,1.52
2023-01-24T13:54:07.273Z,1.50
2023-01-24T13:57:12.738Z,1.49
2023-01-24T13:59:41.174Z,1.54
2023-01-24T14:02:35.524Z,1.54
2023-01-24T14:05:02.523Z,1.51
2023-01-24T14:07:36.878Z,1.55
2023-01-24T14:10:06.388Z,1.44
2023-01-24T14:12:38.559Z,1.45
2023-01-24T14:15:11.405Z,1.45
2023-01-24T14:17:40.892Z,1.40
2023-01-24T14:20:23.907Z,1.43
2023-01-24T14:22:55.660Z,1.42
2023-01-24T14:25:51.234Z,1.47
2023-01-24T14:28:35.965Z,1.42
2023-01-24T14:31:22.084Z,1.42
2023-01-24T14:34:19.499Z,1.44
2023-01-24T14:36:52.023Z,1.39
2023-01-24T14:39:27.069Z,1.41
2023-01-24T14:42:03.479Z,1.38
2023-01-24T14:44:32.157Z,1.36
2023-01-24T14:47:05.727Z,1.33
2023-01-24T14:49:32.765Z,1.42
2023-01-24T14:52:12.125Z,1.45
2023-01-24T14:54:49.143Z,1.40
2023-01-24T14:57:28.907Z,1.39
2023-01-24T15:00:02.683Z,1.42
2023-01-24T15:02:29.943Z,1.39
2023-01-24T15:04:56.974Z,1.36
2023-01-24T15:07:23.885Z,1.38
2023-01-24T15:09:50.623Z,1.34
2023-01-24T15:12:34.006Z,1.30
2023-01-24T15:15:04.232Z,1.34
2023-01-24T15:17:32.660Z,1.32
2023-01-24T15:20:06.988Z,1.31
2023-01-24T15:22:37.044Z,1.22
2023-01-24T15:25:04.678Z,1.24
2023-01-24T15:27:44.370Z,1.25
2023-01-24T15:30:15.837Z,1.22
2023-01-24T15:33:10.384Z,1.25
2023-01-24T15:35:46.717Z,1.22
2023-01-24T15:38:25.752Z,1.24
2023-01-24T15:41:00.887Z,1.22
2023-01-24T15:43:49.293Z,1.22
2023-01-24T15:47:04.667Z,1.14
2023-01-24T15:49:38.444Z,1.19
2023-01-24T15:52:07.907Z,1.20
2023-01-24T15:54:43.054Z,1.23
2023-01-24T15:57:25.266Z,1.21
2023-01-24T15:59:58.677Z,1.20
2023-01-24T16:02:26.253Z,1.20
2023-01-24T16:04:53.060Z,1.20
2023-01-24T16:07:20.305Z,1.20
2023-01-24T16:09:49.547Z,1.19
2023-01-24T16:12:19.491Z,1.08
2023-01-24T16:15:06.505Z,1.12
2023-01-24T16:17:35.523Z,1.10
2023-01-24T16:20:02.978Z,1.13
2023-01-24T16:22:30.541Z,1.10
2023-01-24T16:24:57.232Z,1.10
2023-01-24T16:27:33.276Z,1.10
2023-01-24T16:29:59.996Z,1.12
2023-01-24T16:32:29.585Z,1.11
2023-01-24T16:34:56.264Z,1.11
2023-01-24T16:37:23.721Z,1.12
2023-01-24T16:39:50.638Z,1.13
2023-01-24T16:42:19.669Z,1.13
2023-01-24T16:44:57.744Z,1.09
2023-01-24T16:47:25.908Z,1.11
2023-01-24T16:49:56.785Z,1.10
2023-01-24T16:52:26.292Z,1.10
2023-01-24T16:54:53.324Z,1.07
2023-01-24T16:57:20.499Z,1.08
2023-01-24T16:59:50.477Z,1.11
2023-01-24T17:02:17.383Z,1.07
2023-01-24T17:04:44.841Z,1.07
2023-01-24T17:07:13.039Z,1.05
2023-01-24T17:09:39.865Z,1.04
2023-01-24T17:12:14.248Z,1.02
2023-01-24T17:14:43.965Z,1.03
2023-01-24T17:17:11.665Z,1.06
2023-01-24T17:19:38.486Z,1.05
2023-01-24T17:22:06.658Z,0.99
2023-01-24T17:24:33.839Z,0.97
2023-01-24T17:27:00.762Z,0.97
2023-01-24T17:29:29.119Z,0.96
2023-01-24T17:31:57.367Z,0.98
2023-01-24T17:34:24.578Z,0.96
2023-01-24T17:36:52.127Z,0.95
2023-01-24T17:39:19.072Z,0.93
2023-01-24T17:41:45.840Z,0.92
2023-01-24T17:44:13.395Z,0.91
2023-01-24T17:46:40.549Z,0.92
2023-01-24T17:49:07.540Z,0.94
2023-01-24T17:51:37.225Z,0.94
2023-01-24T17:54:07.096Z,0.92
2023-01-24T17:56:33.981Z,0.93
2023-01-24T17:59:00.927Z,0.93
2023-01-24T18:01:28.071Z,0.94
2023-01-24T18:03:55.312Z,0.91
2023-01-24T18:06:22.568Z,0.93
2023-01-24T18:08:49.573Z,0.93
2023-01-24T18:11:18.876Z,0.93
2023-01-24T18:13:46.418Z,0.97
2023-01-24T18:16:16.254Z,0.96
2023-01-24T18:18:43.361Z,0.92
2023-01-24T18:21:24.479Z,0.90
2023-01-24T18:23:52.980Z,0.92
2023-01-24T18:26:20.488Z,0.92
2023-01-24T18:28:47.371Z,0.89
2023-01-24T18:31:15.207Z,0.92
2023-01-24T18:33:42.164Z,0.92
2023-01-24T18:36:10.806Z,0.90
2023-01-24T18:38:37.635Z,0.88
2023-01-24T18:41:05.293Z,0.88
2023-01-24T18:43:32.469Z,0.84
2023-01-24T18:46:04.735Z,0.88
2023-01-24T18:48:33.648Z,0.87
2023-01-24T18:51:04.962Z,0.88
2023-01-24T18:53:31.566Z,0.88
2023-01-24T18:55:59.915Z,0.87
2023-01-24T18:58:27.190Z,0.85
2023-01-24T19:00:54.131Z,0.91
2023-01-24T19:03:20.846Z,0.87
2023-01-24T19:05:47.516Z,0.87
2023-01-24T19:08:14.157Z,0.82
2023-01-24T19:10:40.930Z,0.84
2023-01-24T19:13:07.628Z,0.83
2023-01-24T19:15:34.277Z,0.82
2023-01-24T19:18:00.982Z,0.83
2023-01-24T19:20:27.851Z,0.84
2023-01-24T19:22:54.939Z,0.82
2023-01-24T19:25:22.371Z,0.84
2023-01-24T19:27:49.304Z,0.78
2023-01-24T19:30:16.206Z,0.79
2023-01-24T19:32:42.968Z,0.79
2023-01-24T19:35:10.102Z,0.81
2023-01-24T19:37:36.833Z,0.75
2023-01-24T19:40:04.672Z,0.73
2023-01-24T19:42:31.285Z,0.73
2023-01-24T19:44:58.008Z,0.74
2023-01-24T19:47:24.821Z,0.78
2023-01-24T19:49:51.589Z,0.81
2023-01-24T19:52:18.187Z,0.81
2023-01-24T19:54:44.835Z,0.77
2023-01-24T19:57:11.582Z,0.79
2023-01-24T19:59:38.200Z,0.74
2023-01-24T20:02:05.203Z,0.77
2023-01-24T20:04:38.329Z,0.79
2023-01-24T20:07:11.800Z,0.82
2023-01-24T20:09:38.656Z,0.84
2023-01-24T20:12:05.708Z,0.78
2023-01-24T20:14:33.379Z,0.77
2023-01-24T20:17:00.374Z,0.67
2023-01-24T20:19:28.983Z,0.72
2023-01-24T20:21:59.902Z,0.70
2023-01-24T20:24:27.638Z,0.71
2023-01-24T20:26:55.164Z,0.82
2023-01-24T20:29:22.434Z,0.77
2023-01-24T20:31:49.291Z,0.75
2023-01-24T20:34:18.292Z,0.75
2023-01-24T20:36:47.420Z,0.75
2023-01-24T20:39:14.351Z,0.73
2023-01-24T20:41:43.392Z,0.69
2023-01-24T20:44:18.394Z,0.64
2023-01-24T20:46:48.518Z,0.62
2023-01-24T20:49:15.224Z,0.68
2023-01-24T20:51:41.849Z,0.69
2023-01-24T20:54:13.398Z,0.69
2023-01-24T20:56:41.106Z,0.67
2023-01-24T20:59:09.042Z,0.65
2023-01-24T21:01:35.789Z,0.63
2023-01-24T21:04:04.538Z,0.70
2023-01-24T21:06:34.480Z,0.69
2023-01-24T21:09:01.562Z,0.70
2023-01-24T21:11:30.159Z,0.68
2023-01-24T21:13:59.190Z,0.65
2023-01-24T21:16:29.167Z,0.66
2023-01-24T21:18:59.419Z,0.65
2023-01-24T21:21:28.153Z,0.67
2023-01-24T21:23:55.056Z,0.69
2023-01-24T21:26:21.773Z,0.68
2023-01-24T21:28:50.227Z,0.65
2023-01-24T21:31:19.273Z,0.73
2023-01-24T21:33:46.979Z,0.66
2023-01-24T21:36:16.643Z,0.64
2023-01-24T21:38:44.227Z,0.62
2023-01-24T21:41:35.161Z,0.66
2023-01-24T21:44:02.281Z,0.65
2023-01-24T21:46:29.195Z,0.65
2023-01-24T21:49:09.602Z,0.63
2023-01-24T21:51:48.454Z,0.66
2023-01-24T21:54:20.716Z,0.64
2023-01-24T21:57:23.913Z,0.59
2023-01-24T21:59:55.432Z,0.67
2023-01-24T22:02:24.832Z,0.65
2023-01-24T22:04:52.234Z,0.60
2023-01-24T22:07:21.586Z,0.58
2023-01-24T22:09:48.908Z,0.63
2023-01-24T22:12:15.853Z,0.65
2023-01-24T22:14:43.185Z,0.68
2023-01-24T22:17:15.585Z,0.68
2023-01-24T22:19:51.079Z,0.67
2023-01-24T22:22:38.399Z,0.67
2023-01-24T22:25:20.179Z,0.66
2023-01-24T22:27:47.251Z,0.64
2023-01-24T22:30:20.823Z,0.66
2023-01-24T22:32:47.683Z,0.67
2023-01-24T22:35:16.395Z,0.66
2023-01-24T22:37:45.842Z,0.61
2023-01-24T22:40:13.745Z,0.61
2023-01-24T22:42:40.415Z,0.62
2023-01-24T22:45:07.786Z,0.62
2023-01-24T22:47:36.265Z,0.62
2023-01-24T22:50:04.081Z,0.68
2023-01-24T22:52:31.328Z,0.67
2023-01-24T22:54:58.250Z,0.66
2023-01-24T22:57:25.000Z,0.54
2023-01-24T22:59:51.869Z,0.51
2023-01-24T23:02:18.737Z,0.51
2023-01-24T23:04:45.480Z,0.52
2023-01-24T23:07:12.304Z,0.48
2023-01-24T23:09:39.226Z,0.47
2023-01-24T23:12:26.285Z,0.54
2023-01-24T23:15:11.779Z,0.71
2023-01-24T23:17:41.821Z,0.64
2023-01-24T23:20:29.903Z,0.52
2023-01-24T23:22:56.764Z,0.53
2023-01-24T23:25:25.826Z,0.48
2023-01-24T23:27:52.947Z,0.55
2023-01-24T23:30:22.568Z,0.60
2023-01-24T23:33:00.144Z,0.52
2023-01-24T23:35:27.016Z,0.51
2023-01-24T23:37:53.629Z,0.51
2023-01-24T23:40:20.427Z,0.56
2023-01-24T23:42:47.162Z,0.52
2023-01-24T23:45:19.275Z,0.56
2023-01-24T23:47:46.478Z,0.53
2023-01-24T23:50:13.520Z,0.52
2023-01-24T23:52:40.343Z,0.51
2023-01-24T23:55:07.941Z,0.49
2023-01-24T23:57:34.753Z,0.50
